LIBN/LCC METAR and TAF weather

Enter ICAO airport designator
Station Type Date Time Source
LIBN METAR 2018/12/15 03:55 UTC NOAA

LIBN 150355Z 30010KT 8000 -RA SCT025 12/11 Q1009 RETS


Station Type Date Time Source
LIBN Decoded METAR 2018/12/15 03:55 UTC NOAA

Lecce, Italy (LIBN) 40-14N 018-09E 61M
Dec 14, 2018 - 10:55 PM EST / 2018.12.15 0355 UTC
Wind: from the WNW (300 degrees) at 12 MPH (10 KT):0
Visibility: 4 mile(s):0
Sky conditions: partly cloudy
Weather: light rain
Temperature: 53 F (12 C)
Dew Point: 51 F (11 C)
Relative Humidity: 93%
Pressure (altimeter): 29.80 in. Hg (1009 hPa)
ob: LIBN 150355Z 30010KT 8000 -RA SCT025 12/11 Q1009 RETS
cycle: 4

Station Type Date Time Source
LIBN TAF 2018/05/28 12:27 UTC NOAA

TAF TAF LIBN 281100Z 2812/2824 02012KT 9999 FEW030
BECMG 2813/2814 CAVOK


Example: see airport list